createdAt,value
2018-12-14T00:00:36.387Z,96.5
2018-12-14T00:01:36.372Z,96.69
2018-12-14T00:02:36.354Z,96.5
2018-12-14T00:03:36.338Z,96.97
2018-12-14T00:04:36.331Z,96.4
2018-12-14T00:05:36.310Z,96.88
2018-12-14T00:06:36.294Z,96.5
2018-12-14T00:07:36.278Z,96.21
2018-12-14T00:08:36.269Z,96.4
2018-12-14T00:09:36.246Z,96.21
2018-12-14T00:10:36.232Z,96.31
2018-12-14T00:11:36.217Z,96.5
2018-12-14T00:12:36.200Z,96.21
2018-12-14T00:13:36.188Z,96.5
2018-12-14T00:14:36.233Z,96.59
2018-12-14T00:15:36.152Z,96.59
2018-12-14T00:16:36.144Z,96.12
2018-12-14T00:17:36.130Z,96.21
2018-12-14T00:18:36.106Z,96.31
2018-12-14T00:19:36.090Z,96.21
2018-12-14T00:20:36.074Z,96.21
2018-12-14T00:21:36.060Z,96.4
2018-12-14T00:22:36.046Z,96.21
2018-12-14T00:23:36.032Z,96.4
2018-12-14T00:24:36.014Z,96.59
2018-12-14T00:25:35.997Z,96.21
2018-12-14T00:26:36.240Z,96.4
2018-12-14T00:27:35.969Z,96.21
2018-12-14T00:28:35.955Z,96.31
2018-12-14T00:29:35.943Z,96.31
2018-12-14T00:30:35.929Z,96.21
2018-12-14T00:31:35.910Z,96.31
2018-12-14T00:32:35.889Z,96.59
2018-12-14T00:33:35.929Z,96.4
2018-12-14T00:34:35.856Z,96.31
2018-12-14T00:35:35.843Z,96.31
2018-12-14T00:36:35.828Z,96.31
2018-12-14T00:37:35.812Z,96.21
2018-12-14T00:38:35.794Z,96.31
2018-12-14T00:39:35.781Z,96.31
2018-12-14T00:40:35.765Z,96.31
2018-12-14T00:41:35.750Z,96.31
2018-12-14T00:42:35.759Z,96.78
2018-12-14T00:43:35.718Z,96.69
2018-12-14T00:44:35.700Z,96.4
2018-12-14T00:45:35.685Z,96.78
2018-12-14T00:46:35.672Z,96.88
2018-12-14T00:47:35.669Z,98.11
2018-12-14T00:48:35.642Z,96.88
2018-12-14T00:49:35.624Z,96.4
2018-12-14T00:50:35.610Z,96.69
2018-12-14T00:51:35.593Z,96.69
2018-12-14T00:52:35.576Z,96.59
2018-12-14T00:53:35.560Z,96.69
2018-12-14T00:54:35.552Z,96.59
2018-12-14T00:55:35.530Z,96.59
2018-12-14T00:56:35.518Z,96.69
2018-12-14T00:57:35.748Z,96.4
2018-12-14T00:58:35.484Z,96.4
2018-12-14T00:59:35.467Z,96.12
2018-12-14T01:00:35.452Z,96.59
2018-12-14T01:01:35.440Z,96.4
2018-12-14T01:02:35.420Z,96.4
2018-12-14T01:03:35.405Z,96.59
2018-12-14T01:04:35.393Z,96.31
2018-12-14T01:05:35.376Z,96.59
2018-12-14T01:06:35.356Z,96.78
2018-12-14T01:07:35.348Z,96.5
2018-12-14T01:08:35.328Z,96.4
2018-12-14T01:09:35.317Z,96.78
2018-12-14T01:10:35.295Z,96.59
2018-12-14T01:11:35.323Z,96.78
2018-12-14T01:12:35.269Z,96.88
2018-12-14T01:13:35.268Z,96.5
2018-12-14T01:14:35.239Z,96.5
2018-12-14T01:15:35.218Z,96.69
2018-12-14T01:16:35.200Z,96.78
2018-12-14T01:17:35.184Z,96.59
2018-12-14T01:18:35.170Z,96.59
2018-12-14T01:19:35.154Z,96.59
2018-12-14T01:20:35.140Z,96.59
2018-12-14T01:21:35.124Z,97.11
2018-12-14T01:22:35.109Z,96.69
2018-12-14T01:23:35.093Z,96.83
2018-12-14T01:24:35.078Z,96.88
2018-12-14T01:25:35.060Z,96.92
2018-12-14T01:26:35.044Z,97.11
2018-12-14T01:27:35.028Z,96.92
2018-12-14T01:28:35.012Z,96.73
2018-12-14T01:29:34.996Z,97.02
2018-12-14T01:30:34.983Z,97.2
2018-12-14T01:31:34.966Z,96.92
2018-12-14T01:32:34.949Z,96.54
2018-12-14T01:33:34.934Z,97.11
2018-12-14T01:34:34.917Z,96.45
2018-12-14T01:35:34.903Z,96.92
2018-12-14T01:36:34.885Z,97.2
2018-12-14T01:37:34.871Z,96.73
2018-12-14T01:38:34.852Z,97.11
2018-12-14T01:39:34.841Z,97.02
2018-12-14T01:40:34.829Z,96.54
2018-12-14T01:41:34.807Z,96.92
2018-12-14T01:42:34.790Z,97.11
2018-12-14T01:43:34.773Z,97.11
2018-12-14T01:44:34.823Z,97.11
2018-12-14T01:45:34.742Z,97.02
2018-12-14T01:46:34.727Z,96.92
2018-12-14T01:47:34.777Z,97.11
2018-12-14T01:48:34.695Z,97.02
2018-12-14T01:49:34.681Z,97.2
2018-12-14T01:50:34.661Z,97.3
2018-12-14T01:51:34.643Z,96.92
2018-12-14T01:52:34.628Z,97.02
2018-12-14T01:53:34.612Z,97.2
2018-12-14T01:54:34.598Z,97.02
2018-12-14T01:55:34.585Z,97.11
2018-12-14T01:56:34.565Z,97.11
2018-12-14T01:57:34.548Z,97.02
2018-12-14T01:58:34.536Z,97.11
2018-12-14T01:59:34.520Z,97.02
2018-12-14T02:00:34.501Z,97.3
2018-12-14T02:01:34.485Z,97.11
2018-12-14T02:02:34.468Z,97.49
2018-12-14T02:03:34.453Z,97.02
2018-12-14T02:04:34.890Z,97.11
2018-12-14T02:05:34.420Z,97.11
2018-12-14T02:06:34.404Z,97.02
2018-12-14T02:07:34.389Z,97.2
2018-12-14T02:08:34.371Z,97.2
2018-12-14T02:09:34.353Z,97.3
2018-12-14T02:10:34.339Z,97.2
2018-12-14T02:11:34.321Z,96.92
2018-12-14T02:12:34.313Z,97.3
2018-12-14T02:13:34.289Z,97.3
2018-12-14T02:14:34.277Z,96.83
2018-12-14T02:15:34.259Z,96.83
2018-12-14T02:16:34.243Z,96.92
2018-12-14T02:17:33.987Z,96.92
2018-12-14T02:18:34.213Z,97.11
2018-12-14T02:19:34.195Z,96.92
2018-12-14T02:20:34.177Z,96.83
2018-12-14T02:21:34.162Z,96.83
2018-12-14T02:22:34.145Z,96.92
2018-12-14T02:23:34.130Z,97.11
2018-12-14T02:24:34.114Z,96.92
2018-12-14T02:25:34.100Z,97.3
2018-12-14T02:26:34.081Z,97.3
2018-12-14T02:27:34.063Z,97.2
2018-12-14T02:28:34.050Z,97.11
2018-12-14T02:29:34.033Z,97.3
2018-12-14T02:30:34.016Z,97.11
2018-12-14T02:31:34.003Z,97.3
2018-12-14T02:32:33.983Z,96.92
2018-12-14T02:33:33.975Z,96.92
2018-12-14T02:34:33.961Z,97.3
2018-12-14T02:35:33.938Z,97.2
2018-12-14T02:36:33.922Z,97.16
2018-12-14T02:37:33.900Z,97.11
2018-12-14T02:38:33.891Z,97.3
2018-12-14T02:39:33.970Z,97.3
2018-12-14T02:40:33.855Z,97.11
2018-12-14T02:41:33.844Z,97.25
2018-12-14T02:42:33.825Z,97.3
2018-12-14T02:43:33.811Z,96.92
2018-12-14T02:44:33.796Z,97.06
2018-12-14T02:45:33.773Z,96.97
2018-12-14T02:46:33.758Z,97.06
2018-12-14T02:47:33.738Z,97.06
2018-12-14T02:48:33.723Z,96.97
2018-12-14T02:49:33.705Z,97.16
2018-12-14T02:50:33.695Z,97.53
2018-12-14T02:51:33.677Z,97.06
2018-12-14T02:52:33.658Z,98.01
2018-12-14T02:53:33.643Z,97.82
2018-12-14T02:54:33.649Z,97.53
2018-12-14T02:55:33.611Z,97.63
2018-12-14T02:56:33.596Z,97.72
2018-12-14T02:57:33.577Z,97.72
2018-12-14T02:58:33.563Z,97.82
2018-12-14T02:59:33.544Z,97.72
2018-12-14T03:00:33.525Z,98.01
2018-12-14T03:01:33.512Z,97.82
2018-12-14T03:02:33.759Z,97.72
2018-12-14T03:03:33.479Z,97.72
2018-12-14T03:04:33.465Z,97.82
2018-12-14T03:05:33.441Z,97.72
2018-12-14T03:06:33.429Z,97.63
2018-12-14T03:07:33.409Z,97.63
2018-12-14T03:08:33.409Z,97.72
2018-12-14T03:09:33.376Z,97.82
2018-12-14T03:10:33.360Z,97.82
2018-12-14T03:11:33.344Z,97.72
2018-12-14T03:12:33.328Z,97.72
2018-12-14T03:13:33.331Z,97.63
2018-12-14T03:14:33.351Z,97.63
2018-12-14T03:15:33.278Z,97.63
2018-12-14T03:16:33.261Z,97.58
2018-12-14T03:17:33.245Z,97.58
2018-12-14T03:18:33.226Z,97.67
2018-12-14T03:19:33.217Z,97.77
2018-12-14T03:20:33.189Z,97.67
2018-12-14T03:21:33.181Z,97.96
2018-12-14T03:22:33.167Z,98.05
2018-12-14T03:23:33.147Z,97.86
2018-12-14T03:24:33.127Z,97.77
2018-12-14T03:25:33.108Z,97.77
2018-12-14T03:26:33.096Z,97.96
2018-12-14T03:27:33.073Z,97.96
2018-12-14T03:28:33.060Z,97.96
2018-12-14T03:29:33.039Z,97.96
2018-12-14T03:30:33.026Z,97.96
2018-12-14T03:31:33.021Z,97.96
2018-12-14T03:32:32.996Z,98.14
2018-12-14T03:33:33.226Z,97.86
2018-12-14T03:34:32.953Z,98.05
2018-12-14T03:35:32.937Z,97.86
2018-12-14T03:36:32.919Z,97.96
2018-12-14T03:37:32.903Z,97.77
2018-12-14T03:38:32.887Z,97.77
2018-12-14T03:39:32.869Z,97.96
2018-12-14T03:40:32.853Z,97.86
2018-12-14T03:41:32.837Z,97.96
2018-12-14T03:42:37.040Z,97.86
2018-12-14T03:43:32.802Z,98.05
2018-12-14T03:44:32.785Z,97.77
2018-12-14T03:45:32.767Z,97.86
2018-12-14T03:46:32.527Z,97.86
2018-12-14T03:47:32.732Z,98.14
2018-12-14T03:48:32.720Z,97.77
2018-12-14T03:49:32.700Z,98.33
2018-12-14T03:50:32.679Z,97.67
2018-12-14T03:51:32.664Z,97.77
2018-12-14T03:52:32.645Z,98.05
2018-12-14T03:53:32.634Z,97.77
2018-12-14T03:54:32.609Z,97.86
2018-12-14T03:55:32.596Z,98.43
2018-12-14T03:56:32.576Z,97.96
2018-12-14T03:57:32.558Z,97.77
2018-12-14T03:58:32.549Z,98.05
2018-12-14T03:59:32.527Z,97.67
2018-12-14T04:00:32.510Z,97.77
2018-12-14T04:01:32.490Z,97.77
2018-12-14T04:02:32.473Z,97.86
2018-12-14T04:03:32.456Z,97.96
2018-12-14T04:04:32.442Z,98.24
2018-12-14T04:05:32.427Z,97.77
2018-12-14T04:06:32.406Z,97.86
2018-12-14T04:07:32.400Z,97.86
2018-12-14T04:08:32.371Z,97.77
2018-12-14T04:09:32.384Z,97.86
2018-12-14T04:10:32.342Z,97.58
2018-12-14T04:11:32.319Z,97.86
2018-12-14T04:12:32.303Z,97.96
2018-12-14T04:13:32.285Z,97.77
2018-12-14T04:14:32.269Z,97.96
2018-12-14T04:15:32.248Z,97.39
2018-12-14T04:16:32.236Z,97.67
2018-12-14T04:17:32.213Z,97.58
2018-12-14T04:18:32.196Z,97.67
2018-12-14T04:19:32.180Z,97.39
2018-12-14T04:20:32.166Z,97.58
2018-12-14T04:21:32.144Z,97.96
2018-12-14T04:22:32.126Z,97.96
2018-12-14T04:23:32.111Z,97.86
2018-12-14T04:24:32.093Z,97.86
2018-12-14T04:25:32.080Z,97.67
2018-12-14T04:26:32.061Z,97.67
2018-12-14T04:27:32.041Z,97.39
2018-12-14T04:28:32.023Z,97.58
2018-12-14T04:29:32.010Z,97.39
2018-12-14T04:30:31.991Z,97.77
2018-12-14T04:31:31.972Z,97.58
2018-12-14T04:32:31.960Z,97.77
2018-12-14T04:33:31.939Z,97.58
2018-12-14T04:34:31.923Z,97.39
2018-12-14T04:35:31.905Z,97.58
2018-12-14T04:36:31.898Z,97.39
2018-12-14T04:37:31.868Z,97.67
2018-12-14T04:38:31.852Z,97.49
2018-12-14T04:39:33.677Z,97.96
2018-12-14T04:40:31.818Z,97.49
2018-12-14T04:41:31.824Z,97.49
2018-12-14T04:42:31.785Z,96.97
2018-12-14T04:43:31.765Z,97.34
2018-12-14T04:44:31.753Z,97.25
2018-12-14T04:45:31.733Z,97.44
2018-12-14T04:46:31.714Z,97.34
2018-12-14T04:47:31.705Z,97.25
2018-12-14T04:48:31.682Z,97.72
2018-12-14T04:49:31.663Z,97.16
2018-12-14T04:50:31.645Z,97.34
2018-12-14T04:51:31.632Z,97.72
2018-12-14T04:52:31.632Z,97.06
2018-12-14T04:53:31.595Z,96.97
2018-12-14T04:54:31.581Z,97.25
2018-12-14T04:55:31.563Z,96.97
2018-12-14T04:56:31.560Z,96.88
2018-12-14T04:57:31.544Z,97.82
2018-12-14T04:58:31.514Z,96.97
2018-12-14T04:59:31.498Z,97.16
2018-12-14T05:00:31.480Z,97.63
2018-12-14T05:01:31.463Z,96.78
2018-12-14T05:02:31.450Z,97.25
2018-12-14T05:03:31.441Z,97.25
2018-12-14T05:04:31.412Z,96.88
2018-12-14T05:05:31.397Z,96.88
2018-12-14T05:06:31.574Z,96.88
2018-12-14T05:07:31.362Z,96.88
2018-12-14T05:08:31.347Z,96.78
2018-12-14T05:09:31.328Z,96.88
2018-12-14T05:10:31.317Z,96.78
2018-12-14T05:11:31.295Z,96.5
2018-12-14T05:12:31.280Z,96.59
2018-12-14T05:13:31.264Z,96.69
2018-12-14T05:14:31.253Z,96.69
2018-12-14T05:15:31.232Z,96.59
2018-12-14T05:16:31.212Z,96.97
2018-12-14T05:17:31.199Z,96.64
2018-12-14T05:18:31.179Z,96.73
2018-12-14T05:19:31.164Z,96.64
2018-12-14T05:20:31.147Z,96.73
2018-12-14T05:21:31.131Z,96.73
2018-12-14T05:22:31.114Z,96.83
2018-12-14T05:23:31.100Z,96.73
2018-12-14T05:24:31.082Z,97.11
2018-12-14T05:25:31.066Z,96.73
2018-12-14T05:26:31.448Z,97.02
2018-12-14T05:27:31.034Z,96.73
2018-12-14T05:28:30.775Z,96.73
2018-12-14T05:29:31.000Z,97.02
2018-12-14T05:30:30.984Z,96.92
2018-12-14T05:31:30.968Z,96.92
2018-12-14T05:32:30.949Z,96.54
2018-12-14T05:33:30.935Z,97.11
2018-12-14T05:34:30.920Z,97.02
2018-12-14T05:35:30.904Z,96.16
2018-12-14T05:36:30.887Z,96.45
2018-12-14T05:37:30.872Z,96.35
2018-12-14T05:38:30.852Z,96.45
2018-12-14T05:39:30.838Z,96.35
2018-12-14T05:40:30.820Z,97.02
2018-12-14T05:41:31.366Z,96.92
2018-12-14T05:42:30.788Z,97.11
2018-12-14T05:43:30.775Z,96.54
2018-12-14T05:44:30.755Z,96.35
2018-12-14T05:45:30.738Z,96.45
2018-12-14T05:46:30.736Z,96.07
2018-12-14T05:47:30.707Z,96.35
2018-12-14T05:48:30.691Z,96.35
2018-12-14T05:49:30.677Z,96.35
2018-12-14T05:50:30.666Z,96.35
2018-12-14T05:51:30.642Z,96.45
2018-12-14T05:52:30.631Z,96.26
2018-12-14T05:53:30.610Z,96.45
2018-12-14T05:54:30.592Z,96.35
2018-12-14T05:55:30.577Z,96.54
2018-12-14T05:56:30.561Z,96.45
2018-12-14T05:57:30.555Z,96.45
2018-12-14T05:58:30.527Z,96.45
2018-12-14T05:59:30.516Z,96.26
2018-12-14T06:00:30.500Z,96.35
2018-12-14T06:01:30.483Z,96.35
2018-12-14T06:02:30.466Z,96.45
2018-12-14T06:03:30.447Z,96.35
2018-12-14T06:04:30.435Z,96.26
2018-12-14T06:05:30.421Z,96.54
2018-12-14T06:06:30.401Z,96.07
2018-12-14T06:07:30.385Z,96.45
2018-12-14T06:08:30.368Z,96.45
2018-12-14T06:09:30.604Z,96.26
2018-12-14T06:10:30.336Z,96.45
2018-12-14T06:11:30.320Z,96.92
2018-12-14T06:12:30.304Z,96.73
2018-12-14T06:13:30.289Z,96.35
2018-12-14T06:14:30.271Z,96.35
2018-12-14T06:15:30.254Z,96.64
2018-12-14T06:16:30.241Z,96.64
2018-12-14T06:17:30.222Z,96.83
2018-12-14T06:18:30.206Z,96.92
2018-12-14T06:19:30.193Z,96.45
2018-12-14T06:20:30.174Z,97.02
2018-12-14T06:21:30.166Z,96.73
2018-12-14T06:22:30.144Z,97.11
2018-12-14T06:23:30.127Z,96.73
2018-12-14T06:24:30.119Z,96.73
2018-12-14T06:25:30.100Z,96.26
2018-12-14T06:26:30.078Z,96.83
2018-12-14T06:27:30.063Z,96.92
2018-12-14T06:28:30.047Z,96.92
2018-12-14T06:29:30.030Z,96.83
2018-12-14T06:30:30.013Z,96.92
2018-12-14T06:31:29.997Z,96.83
2018-12-14T06:32:29.980Z,97.3
2018-12-14T06:33:29.966Z,97.11
2018-12-14T06:34:29.949Z,96.64
2018-12-14T06:35:29.930Z,96.54
2018-12-14T06:36:29.919Z,96.83
2018-12-14T06:37:29.899Z,96.83
2018-12-14T06:38:29.885Z,96.83
2018-12-14T06:39:29.869Z,96.83
2018-12-14T06:40:29.852Z,96.83
2018-12-14T06:41:29.845Z,96.92
2018-12-14T06:42:29.823Z,96.73
2018-12-14T06:43:29.805Z,96.73
2018-12-14T06:44:29.801Z,96.83
2018-12-14T06:45:29.772Z,96.73
2018-12-14T06:46:29.760Z,96.54
2018-12-14T06:47:29.740Z,96.73
2018-12-14T06:48:29.722Z,97.02
2018-12-14T06:49:29.708Z,96.83
2018-12-14T06:50:29.695Z,96.83
2018-12-14T06:51:29.674Z,96.54
2018-12-14T06:52:29.663Z,96.73
2018-12-14T06:53:29.646Z,96.54
2018-12-14T06:54:29.625Z,96.54
2018-12-14T06:55:29.612Z,96.64
2018-12-14T06:56:29.594Z,96.92
2018-12-14T06:57:29.584Z,96.73
2018-12-14T06:58:29.562Z,96.64
2018-12-14T06:59:29.547Z,96.83
2018-12-14T07:00:29.533Z,96.92
2018-12-14T07:01:29.513Z,96.73
2018-12-14T07:02:29.498Z,96.92
2018-12-14T07:03:29.481Z,96.73
2018-12-14T07:04:29.462Z,96.92
2018-12-14T07:05:29.452Z,96.73
2018-12-14T07:06:29.438Z,96.64
2018-12-14T07:07:29.427Z,97.87
2018-12-14T07:08:29.415Z,97.39
2018-12-14T07:09:29.386Z,96.92
2018-12-14T07:10:29.369Z,96.92
2018-12-14T07:11:29.353Z,97.54
2018-12-14T07:12:29.342Z,97.35
2018-12-14T07:13:29.322Z,96.97
2018-12-14T07:14:29.312Z,97.16
2018-12-14T07:15:29.290Z,97.11
2018-12-14T07:16:29.274Z,97.3
2018-12-14T07:17:29.257Z,97.39
2018-12-14T07:18:29.245Z,97.96
2018-12-14T07:19:29.228Z,97.58
2018-12-14T07:20:29.214Z,97.39
2018-12-14T07:21:29.194Z,97.3
2018-12-14T07:22:29.176Z,97.87
2018-12-14T07:23:29.159Z,97.58
2018-12-14T07:24:29.147Z,97.02
2018-12-14T07:25:29.133Z,97.11
2018-12-14T07:26:29.115Z,97.2
2018-12-14T07:27:29.103Z,97.2
2018-12-14T07:28:29.082Z,97.25
2018-12-14T07:29:29.069Z,96.83
2018-12-14T07:30:29.049Z,97.44
2018-12-14T07:31:29.033Z,97.2
2018-12-14T07:32:29.020Z,97.3
2018-12-14T07:33:29.019Z,97.11
2018-12-14T07:34:28.988Z,97.39
2018-12-14T07:35:28.971Z,97.54
2018-12-14T07:36:28.957Z,97.16
2018-12-14T07:37:28.936Z,97.25
2018-12-14T07:38:28.928Z,97.16
2018-12-14T07:39:28.910Z,97.39
2018-12-14T07:40:28.891Z,97.3
2018-12-14T07:41:28.875Z,97.44
2018-12-14T07:42:28.861Z,97.54
2018-12-14T07:43:30.923Z,97.3
2018-12-14T07:44:28.991Z,97.54
2018-12-14T07:45:28.813Z,97.16
2018-12-14T07:46:28.811Z,97.35
2018-12-14T07:47:28.780Z,97.25
2018-12-14T07:48:28.767Z,97.3
2018-12-14T07:49:28.749Z,98.06
2018-12-14T07:50:28.736Z,97.25
2018-12-14T07:51:28.720Z,97.39
2018-12-14T07:52:28.700Z,97.39
2018-12-14T07:53:28.689Z,97.49
2018-12-14T07:54:28.670Z,97.49
2018-12-14T07:55:28.653Z,97.35
2018-12-14T07:56:28.639Z,97.73
2018-12-14T07:57:28.624Z,97.35
2018-12-14T07:58:28.608Z,97.16
2018-12-14T07:59:28.588Z,97.49
2018-12-14T08:00:28.574Z,97.35
2018-12-14T08:01:28.557Z,97.44
2018-12-14T08:02:28.542Z,96.92
2018-12-14T08:03:28.527Z,97.16
2018-12-14T08:04:28.511Z,97.16
2018-12-14T08:05:28.496Z,97.2
2018-12-14T08:06:28.240Z,97.16
2018-12-14T08:07:28.466Z,97.35
2018-12-14T08:08:28.451Z,97.35
2018-12-14T08:09:28.433Z,97.11
2018-12-14T08:10:28.416Z,97.16
2018-12-14T08:11:28.401Z,97.25
2018-12-14T08:12:28.391Z,97.11
2018-12-14T08:13:34.637Z,97.16
2018-12-14T08:14:28.351Z,97.11
2018-12-14T08:15:28.337Z,97.44
2018-12-14T08:16:28.325Z,97.39
2018-12-14T08:17:28.306Z,96.97
2018-12-14T08:18:28.287Z,97.25
2018-12-14T08:19:28.277Z,97.54
2018-12-14T08:20:28.261Z,96.97
2018-12-14T08:21:28.240Z,97.35
2018-12-14T08:22:28.225Z,97.06
2018-12-14T08:23:28.209Z,97.25
2018-12-14T08:24:28.195Z,97.44
2018-12-14T08:25:28.202Z,97.35
2018-12-14T08:26:28.163Z,97.16
2018-12-14T08:27:28.147Z,97.54
2018-12-14T08:28:28.133Z,97.16
2018-12-14T08:29:28.120Z,97.35
2018-12-14T08:30:28.101Z,97.06
2018-12-14T08:31:28.088Z,97.54
2018-12-14T08:32:28.068Z,97.44
2018-12-14T08:33:28.056Z,97.54
2018-12-14T08:34:28.038Z,96.97
2018-12-14T08:35:28.027Z,96.97
2018-12-14T08:36:28.007Z,97.16
2018-12-14T08:37:27.995Z,96.97
2018-12-14T08:38:27.976Z,96.88
2018-12-14T08:39:27.977Z,96.69
2018-12-14T08:40:27.945Z,97.25
2018-12-14T08:41:27.929Z,97.35
2018-12-14T08:42:27.914Z,96.97
2018-12-14T08:43:27.900Z,97.16
2018-12-14T08:44:27.882Z,96.97
2018-12-14T08:45:27.869Z,96.78
2018-12-14T08:46:27.852Z,97.16
2018-12-14T08:47:28.576Z,97.35
2018-12-14T08:48:27.829Z,97.35
2018-12-14T08:49:27.869Z,97.35
2018-12-14T08:50:27.792Z,97.06
2018-12-14T08:51:28.027Z,96.97
2018-12-14T08:52:27.811Z,96.88
2018-12-14T08:53:27.744Z,97.16
2018-12-14T08:54:27.737Z,96.5
2018-12-14T08:55:27.724Z,96.88
2018-12-14T08:56:27.698Z,96.97
2018-12-14T08:57:27.682Z,96.78
2018-12-14T08:58:27.668Z,96.5
2018-12-14T08:59:27.653Z,96.88
2018-12-14T09:00:27.639Z,96.92
2018-12-14T09:01:27.623Z,98.16
2018-12-14T09:02:27.609Z,97.02
2018-12-14T09:03:27.592Z,97.06
2018-12-14T09:04:27.580Z,97.63
2018-12-14T09:05:27.563Z,97.06
2018-12-14T09:06:27.547Z,97.16
2018-12-14T09:07:27.535Z,97.11
2018-12-14T09:08:27.520Z,97.11
2018-12-14T09:09:27.502Z,96.83
2018-12-14T09:10:27.485Z,96.92
2018-12-14T09:11:27.529Z,97.21
2018-12-14T09:12:27.456Z,97.11
2018-12-14T09:13:27.443Z,97.02
2018-12-14T09:14:27.427Z,97.11
2018-12-14T09:15:27.413Z,96.64
2018-12-14T09:16:27.395Z,96.55
2018-12-14T09:17:27.382Z,96.64
2018-12-14T09:18:27.366Z,96.83
2018-12-14T09:19:27.355Z,97.02
2018-12-14T09:20:27.337Z,96.45
2018-12-14T09:21:27.324Z,97.02
2018-12-14T09:22:27.309Z,96.55
2018-12-14T09:23:27.293Z,96.45
2018-12-14T09:24:27.282Z,96.64
2018-12-14T09:25:27.263Z,96.64
2018-12-14T09:26:27.248Z,97.02
2018-12-14T09:27:27.234Z,97.02
2018-12-14T09:28:27.219Z,97.3
2018-12-14T09:29:27.209Z,96.92
2018-12-14T09:30:27.189Z,96.83
2018-12-14T09:31:27.174Z,97.21
2018-12-14T09:32:27.161Z,97.02
2018-12-14T09:33:27.144Z,96.83
2018-12-14T09:34:27.129Z,97.3
2018-12-14T09:35:27.120Z,97.3
2018-12-14T09:36:27.103Z,97.02
2018-12-14T09:37:27.087Z,96.92
2018-12-14T09:38:27.075Z,96.64
2018-12-14T09:39:27.061Z,96.55
2018-12-14T09:40:27.043Z,96.64
2018-12-14T09:41:27.027Z,96.83
2018-12-14T09:42:27.015Z,96.64
2018-12-14T09:43:26.998Z,96.55
2018-12-14T09:44:26.986Z,96.69
2018-12-14T09:45:26.969Z,97.21
2018-12-14T09:46:26.954Z,96.45
2018-12-14T09:47:26.938Z,96.83
2018-12-14T09:48:26.924Z,97.07
2018-12-14T09:49:26.911Z,96.83
2018-12-14T09:50:26.904Z,97.21
2018-12-14T09:51:26.884Z,97.87
2018-12-14T09:52:26.868Z,97.4
2018-12-14T09:53:26.851Z,97.4
2018-12-14T09:54:26.838Z,97.3
2018-12-14T09:55:26.823Z,97.59
2018-12-14T09:56:26.811Z,97.59
2018-12-14T09:57:26.795Z,97.3
2018-12-14T09:58:26.781Z,97.49
2018-12-14T09:59:26.766Z,97.49
2018-12-14T10:00:26.750Z,97.78
2018-12-14T10:01:26.738Z,97.68
2018-12-14T10:02:26.720Z,97.3
2018-12-14T10:03:26.705Z,96.92
2018-12-14T10:04:26.692Z,97.02
2018-12-14T10:05:26.678Z,97.26
2018-12-14T10:06:26.667Z,97.02
2018-12-14T10:07:26.647Z,97.21
2018-12-14T10:08:26.635Z,97.35
2018-12-14T10:09:26.620Z,97.16
2018-12-14T10:10:26.628Z,97.54
2018-12-14T10:11:26.592Z,97.26
2018-12-14T10:12:26.582Z,97.16
2018-12-14T10:13:26.567Z,97.78
2018-12-14T10:14:26.613Z,97.4
2018-12-14T10:15:26.531Z,97.3
2018-12-14T10:16:26.523Z,97.78
2018-12-14T10:17:26.504Z,97.49
2018-12-14T10:18:26.493Z,97.4
2018-12-14T10:19:26.472Z,97.49
2018-12-14T10:20:26.460Z,97.59
2018-12-14T10:21:26.445Z,97.4
2018-12-14T10:22:26.430Z,97.68
2018-12-14T10:23:26.418Z,97.49
2018-12-14T10:24:26.400Z,97.59
2018-12-14T10:25:26.383Z,96.92
2018-12-14T10:26:26.374Z,97.59
2018-12-14T10:27:26.357Z,97.26
2018-12-14T10:28:26.346Z,97.26
2018-12-14T10:29:26.333Z,97.54
2018-12-14T10:30:26.313Z,97.07
2018-12-14T10:31:26.300Z,97.45
2018-12-14T10:32:26.326Z,97.07
2018-12-14T10:33:26.272Z,97.64
2018-12-14T10:34:26.263Z,96.97
2018-12-14T10:35:26.245Z,97.64
2018-12-14T10:36:26.230Z,97.16
2018-12-14T10:37:26.213Z,97.35
2018-12-14T10:38:26.198Z,97.35
2018-12-14T10:39:26.182Z,97.45
2018-12-14T10:40:26.170Z,97.73
2018-12-14T10:41:26.154Z,98.87
2018-12-14T10:42:26.141Z,97.45
2018-12-14T10:43:26.128Z,97.68
2018-12-14T10:44:29.726Z,97.59
2018-12-14T10:45:26.096Z,97.87
2018-12-14T10:46:26.085Z,97.68
2018-12-14T10:47:26.068Z,97.97
2018-12-14T10:48:26.053Z,97.78
2018-12-14T10:49:26.038Z,97.87
2018-12-14T10:50:26.028Z,97.97
2018-12-14T10:51:26.009Z,98.25
2018-12-14T10:52:26.002Z,97.78
2018-12-14T10:53:25.986Z,98.82
2018-12-14T10:54:25.966Z,97.97
2018-12-14T10:55:25.952Z,98.35
2018-12-14T10:56:25.938Z,97.68
2018-12-14T10:57:25.925Z,97.59
2018-12-14T10:58:25.908Z,97.49
2018-12-14T10:59:25.894Z,97.78
2018-12-14T11:00:25.880Z,97.49
2018-12-14T11:01:25.866Z,97.59
2018-12-14T11:02:25.852Z,98.25
2018-12-14T11:03:25.834Z,97.54
2018-12-14T11:04:26.343Z,97.83
2018-12-14T11:05:25.807Z,97.83
2018-12-14T11:06:25.793Z,98.3
2018-12-14T11:07:25.777Z,97.4
2018-12-14T11:08:25.763Z,97.64
2018-12-14T11:09:25.750Z,97.97
2018-12-14T11:10:25.734Z,97.87
2018-12-14T11:11:25.719Z,97.59
2018-12-14T11:12:25.703Z,97.97
2018-12-14T11:13:25.689Z,97.78
2018-12-14T11:14:25.691Z,97.87
2018-12-14T11:15:25.661Z,97.49
2018-12-14T11:16:25.645Z,98.44
2018-12-14T11:17:25.631Z,98.35
2018-12-14T11:18:25.685Z,97.49
2018-12-14T11:19:25.603Z,97.87
2018-12-14T11:20:25.587Z,98.06
2018-12-14T11:21:25.579Z,98.25
2018-12-14T11:22:25.560Z,97.68
2018-12-14T11:23:25.551Z,97.87
2018-12-14T11:24:25.529Z,97.78
2018-12-14T11:25:25.515Z,97.87
2018-12-14T11:26:25.500Z,97.59
2018-12-14T11:27:25.485Z,97.87
2018-12-14T11:28:25.477Z,98.35
2018-12-14T11:29:25.460Z,98.35
2018-12-14T11:30:25.442Z,97.68
2018-12-14T11:31:25.427Z,97.49
2018-12-14T11:32:25.412Z,97.97
2018-12-14T11:33:25.396Z,97.87
2018-12-14T11:34:31.995Z,98.25
2018-12-14T11:35:25.364Z,98.35
2018-12-14T11:36:25.351Z,97.97
2018-12-14T11:37:25.337Z,98.06
2018-12-14T11:38:25.323Z,98.16
2018-12-14T11:39:25.310Z,98.25
2018-12-14T11:40:25.293Z,97.97
2018-12-14T11:41:25.285Z,98.25
2018-12-14T11:42:25.267Z,98.16
2018-12-14T11:43:25.256Z,97.4
2018-12-14T11:44:25.236Z,97.68
2018-12-14T11:45:25.226Z,97.68
2018-12-14T11:46:25.217Z,98.25
2018-12-14T11:47:25.191Z,97.97
2018-12-14T11:48:25.174Z,97.78
2018-12-14T11:49:25.161Z,97.68
2018-12-14T11:50:25.144Z,97.87
2018-12-14T11:51:25.131Z,98.16
2018-12-14T11:52:25.116Z,98.16
2018-12-14T11:53:25.105Z,98.54
2018-12-14T11:54:25.087Z,98.06
2018-12-14T11:55:25.072Z,98.25
2018-12-14T11:56:25.059Z,98.06
2018-12-14T11:57:25.043Z,97.97
2018-12-14T11:58:25.027Z,98.06
2018-12-14T11:59:25.013Z,97.78
2018-12-14T12:00:25.021Z,98.25
2018-12-14T12:01:24.981Z,97.78
2018-12-14T12:02:24.967Z,97.97
2018-12-14T12:03:24.953Z,97.59
2018-12-14T12:04:24.936Z,97.97
2018-12-14T12:05:24.921Z,97.21
2018-12-14T12:06:24.908Z,97.21
2018-12-14T12:07:24.895Z,97.4
2018-12-14T12:08:24.880Z,98.25
2018-12-14T12:09:24.868Z,97.49
2018-12-14T12:10:24.849Z,97.4
2018-12-14T12:11:24.833Z,97.4
2018-12-14T12:12:24.817Z,97.4
2018-12-14T12:13:24.803Z,98.16
2018-12-14T12:14:29.421Z,97.68
2018-12-14T12:15:24.774Z,97.97
2018-12-14T12:16:24.760Z,97.59
2018-12-14T12:17:24.751Z,97.59
2018-12-14T12:18:24.730Z,97.68
2018-12-14T12:19:24.724Z,97.68
2018-12-14T12:20:24.700Z,97.68
2018-12-14T12:21:24.687Z,98.16
2018-12-14T12:22:24.669Z,98.25
2018-12-14T12:23:24.655Z,97.59
2018-12-14T12:24:24.639Z,98.35
2018-12-14T12:25:24.627Z,98.54
2018-12-14T12:26:24.609Z,97.87
2018-12-14T12:27:24.594Z,98.06
2018-12-14T12:28:24.579Z,97.68
2018-12-14T12:29:24.562Z,97.4
2018-12-14T12:30:24.550Z,97.21
2018-12-14T12:31:24.533Z,97.49
2018-12-14T12:32:24.521Z,97.21
2018-12-14T12:33:24.505Z,97.4
2018-12-14T12:34:24.490Z,97.4
2018-12-14T12:35:24.477Z,97.21
2018-12-14T12:36:24.460Z,97.49
2018-12-14T12:37:24.445Z,99.1
2018-12-14T12:38:24.431Z,97.59
2018-12-14T12:39:24.415Z,98.35
2018-12-14T12:40:24.403Z,97.4
2018-12-14T12:41:24.386Z,97.59
2018-12-14T12:42:24.374Z,97.87
2018-12-14T12:43:24.357Z,97.49
2018-12-14T12:44:24.341Z,97.97
2018-12-14T12:45:24.332Z,97.59
2018-12-14T12:46:24.314Z,97.4
2018-12-14T12:47:24.298Z,97.59
2018-12-14T12:48:24.281Z,97.68
2018-12-14T12:49:24.266Z,97.68
2018-12-14T12:50:24.253Z,97.21
2018-12-14T12:51:24.240Z,97.49
2018-12-14T12:52:24.224Z,97.49
2018-12-14T12:53:24.210Z,97.78
2018-12-14T12:54:24.193Z,98.06
2018-12-14T12:55:24.178Z,97.59